Time;durP1;ratioP1;P1;durP2;ratioP2;P2;SDS_P1;SDS_P2;PMS_P1;PMS_P2;Temp;Humidity;BMP_temperature;BMP_pressure;BME280_temperature;BME280_humidity;BME280_pressure;Samples;Min_cycle;Max_cycle;Signal;HPM_P1;HPM_P2
2023/01/21 00:02:25;;;;;;;29.60;19.75;;;;;;;1.45;100.00;100948.72;5078168;28;20293;-75
2023/01/21 00:04:52;;;;;;;34.60;20.60;;;;;;;1.37;100.00;100955.75;5081759;28;20328;-73
2023/01/21 00:07:18;;;;;;;32.60;20.70;;;;;;;1.41;100.00;100958.41;5086772;28;20281;-74
2023/01/21 00:09:45;;;;;;;36.10;22.10;;;;;;;1.44;100.00;100957.53;5084989;28;20215;-73
2023/01/21 00:12:12;;;;;;;34.03;21.25;;;;;;;1.47;100.00;100957.56;5080782;28;20204;-72
2023/01/21 00:14:39;;;;;;;34.67;22.30;;;;;;;1.50;100.00;100965.50;5074677;28;20257;-74
2023/01/21 00:17:06;;;;;;;37.25;22.55;;;;;;;1.42;100.00;100962.84;5080802;28;20199;-73
2023/01/21 00:19:33;;;;;;;36.20;21.30;;;;;;;1.42;100.00;100964.59;5081272;28;20281;-74
2023/01/21 00:22:00;;;;;;;38.08;20.40;;;;;;;1.39;100.00;100965.50;5078668;28;20209;-74
2023/01/21 00:24:26;;;;;;;36.00;22.00;;;;;;;1.42;100.00;100973.44;5073853;28;20562;-72
2023/01/21 00:26:53;;;;;;;34.00;21.00;;;;;;;1.38;100.00;100976.09;5081761;28;20231;-73
2023/01/21 00:29:20;;;;;;;34.55;20.60;;;;;;;1.37;100.00;100977.88;5082328;28;20203;-74
2023/01/21 00:31:48;;;;;;;36.90;20.17;;;;;;;1.35;100.00;100974.34;5084559;28;20269;-73
2023/01/21 00:34:15;;;;;;;39.03;21.33;;;;;;;1.36;100.00;100976.13;5083174;28;20308;-74
2023/01/21 00:36:41;;;;;;;34.83;21.52;;;;;;;1.45;100.00;100986.75;5084562;28;20232;-75
2023/01/21 00:39:08;;;;;;;36.92;21.50;;;;;;;1.40;100.00;100983.22;5082084;28;20202;-75
2023/01/21 00:41:36;;;;;;;32.75;19.77;;;;;;;1.30;100.00;100986.72;5081064;28;20261;-74
2023/01/21 00:44:02;;;;;;;32.33;19.50;;;;;;;1.31;100.00;100983.19;5082128;28;20285;-75
2023/01/21 00:46:29;;;;;;;35.00;19.25;;;;;;;1.31;100.00;100996.47;5079256;28;20286;-73
2023/01/21 00:48:59;;;;;;;36.90;20.83;;;;;;;1.33;100.00;100992.00;5070484;28;20198;-75
2023/01/21 00:51:25;;;;;;;32.15;19.00;;;;;;;1.24;100.00;100984.94;5081199;28;20527;-74
2023/01/21 00:53:52;;;;;;;34.53;20.80;;;;;;;1.30;100.00;100997.34;5080291;28;20224;-73
2023/01/21 00:56:18;;;;;;;38.88;24.98;;;;;;;1.30;100.00;101002.63;5081716;28;20221;-75
2023/01/21 00:58:45;;;;;;;37.03;21.67;;;;;;;1.34;100.00;101004.44;5080431;28;20204;-73
2023/01/21 01:01:14;;;;;;;33.78;20.48;;;;;;;1.34;100.00;101011.50;5081795;28;20231;-74
2023/01/21 01:03:41;;;;;;;32.50;19.27;;;;;;;1.34;100.00;101020.34;5080769;28;20220;-73
2023/01/21 01:06:12;;;;;;;32.85;20.70;;;;;;;1.24;100.00;101022.09;5080647;28;20582;-73
2023/01/21 01:08:39;;;;;;;35.60;19.85;;;;;;;1.22;100.00;101025.59;5085592;28;20215;-73
2023/01/21 01:11:06;;;;;;;35.03;20.77;;;;;;;1.23;100.00;101027.41;5082324;28;20270;-75
2023/01/21 01:13:34;;;;;;;33.03;20.00;;;;;;;1.16;100.00;101037.09;5074527;28;20297;-73
2023/01/21 01:16:01;;;;;;;34.08;20.10;;;;;;;1.22;100.00;101031.81;5093494;28;20285;-75
2023/01/21 01:18:29;;;;;;;32.50;20.80;;;;;;;1.27;100.00;101034.50;5095519;28;20203;-74
2023/01/21 01:20:55;;;;;;;35.42;21.20;;;;;;;1.23;100.00;101038.88;5095033;28;20263;-73
2023/01/21 01:23:23;;;;;;;31.77;20.92;;;;;;;1.30;100.00;101049.53;5094442;28;20265;-74
2023/01/21 01:25:57;;;;;;;31.45;19.15;;;;;;;1.24;100.00;101051.28;5096020;28;20222;-73
2023/01/21 01:28:24;;;;;;;31.15;19.77;;;;;;;1.24;100.00;101053.03;5095011;28;20226;-71
2023/01/21 01:30:51;;;;;;;35.58;20.75;;;;;;;1.32;100.00;101061.91;5092654;28;20198;-71
2023/01/21 01:33:18;;;;;;;31.48;19.25;;;;;;;1.23;100.00;101065.44;5093545;28;20282;-73
2023/01/21 01:35:45;;;;;;;34.53;18.85;;;;;;;1.21;100.00;101061.88;5084637;28;20251;-74
2023/01/21 01:38:12;;;;;;;35.65;21.10;;;;;;;1.10;100.00;101058.28;5091131;28;20204;-73
2023/01/21 01:40:40;;;;;;;34.88;20.98;;;;;;;1.00;100.00;101067.13;5087099;28;20270;-74
2023/01/21 01:43:15;;;;;;;29.58;17.83;;;;;;;0.92;100.00;101080.31;5079879;28;20205;-75
2023/01/21 01:45:42;;;;;;;29.90;17.73;;;;;;;0.83;100.00;101083.81;5079608;28;20221;-74
2023/01/21 01:48:14;;;;;;;27.98;16.17;;;;;;;0.80;100.00;101085.56;5079450;28;20199;-74
2023/01/21 01:50:41;;;;;;;33.83;18.85;;;;;;;0.73;100.00;101089.06;5080892;28;20198;-74
2023/01/21 01:53:10;;;;;;;31.35;19.27;;;;;;;0.74;100.00;101093.50;5080403;28;20198;-76
2023/01/21 01:55:38;;;;;;;27.20;16.98;;;;;;;0.70;100.00;101099.63;5076063;28;20312;-74
2023/01/21 01:58:10;;;;;;;30.75;17.10;;;;;;;0.70;100.00;101094.34;5079789;28;20215;-75
2023/01/21 02:00:36;;;;;;;28.08;15.82;;;;;;;0.70;100.00;101097.91;5071636;28;20224;-73
2023/01/21 02:05:48;;;;;;;24.17;15.32;;;;;;;0.54;100.00;101098.66;5077479;28;20218;-74
2023/01/21 02:08:14;;;;;;;29.67;16.88;;;;;;;0.47;100.00;101100.38;5081713;28;20212;-74
2023/01/21 02:10:41;;;;;;;26.85;16.67;;;;;;;0.37;100.00;101106.50;5080122;28;20199;-75
2023/01/21 02:13:09;;;;;;;30.48;15.77;;;;;;;0.33;100.00;101110.88;5081224;28;20544;-76
2023/01/21 02:15:45;;;;;;;24.80;15.00;;;;;;;0.28;100.00;101117.91;5075664;28;20241;-74
2023/01/21 02:18:21;;;;;;;24.83;15.55;;;;;;;0.31;100.00;101122.34;5075859;28;20196;-73
2023/01/21 02:21:32;;;;;;;25.75;15.35;;;;;;;0.14;100.00;101125.75;5079298;28;20195;-73
2023/01/21 02:24:49;;;;;;;30.58;16.38;;;;;;;0.13;100.00;101123.06;5013868;28;20238;-72
2023/01/21 02:27:32;;;;;;;28.65;16.80;;;;;;;0.12;100.00;101126.59;5029281;28;20674;-75
2023/01/21 02:30:35;;;;;;;27.50;15.00;;;;;;;0.03;100.00;101126.53;5023954;28;20206;-75
2023/01/21 02:33:37;;;;;;;27.88;16.92;;;;;;;-0.06;100.00;101132.63;5031033;28;20211;-75
2023/01/21 02:36:16;;;;;;;25.42;14.52;;;;;;;-0.15;100.00;101128.13;4962160;28;20219;-73
2023/01/21 02:38:51;;;;;;;28.00;14.43;;;;;;;-0.12;100.00;101138.72;4957080;28;20203;-75
2023/01/21 02:41:28;;;;;;;26.95;14.75;;;;;;;-0.21;100.00;101128.03;4956231;28;20698;-74
2023/01/21 02:44:06;;;;;;;27.05;15.05;;;;;;;-0.24;100.00;101131.56;4964560;28;20209;-75
2023/01/21 02:46:39;;;;;;;27.42;14.65;;;;;;;-0.30;100.00;101127.94;4967082;28;20246;-73
2023/01/21 02:49:15;;;;;;;26.73;15.15;;;;;;;-0.42;100.00;101139.31;4959960;28;20207;-75
2023/01/21 02:51:46;;;;;;;24.30;14.93;;;;;;;-0.47;100.00;101147.19;4952899;28;20210;-73
2023/01/21 02:54:14;;;;;;;26.25;15.07;;;;;;;-0.50;100.00;101151.53;4956073;28;20227;-75
2023/01/21 02:56:42;;;;;;;27.08;14.13;;;;;;;-0.51;100.00;101155.94;4955947;28;20241;-75
2023/01/21 02:59:10;;;;;;;27.38;15.15;;;;;;;-0.56;100.00;101160.31;4956849;28;20219;-74
2023/01/21 03:01:48;;;;;;;28.45;16.27;;;;;;;-0.63;100.00;101156.69;5008460;28;20665;-75
2023/01/21 03:04:40;;;;;;;26.05;14.18;;;;;;;-0.67;100.00;101159.28;5012948;28;20200;-75
2023/01/21 03:07:16;;;;;;;25.52;14.50;;;;;;;-0.74;100.00;101168.91;5022639;28;20205;-73
2023/01/21 03:09:42;;;;;;;24.70;14.82;;;;;;;-0.76;100.00;101169.75;5011539;28;20217;-76
2023/01/21 03:12:29;;;;;;;30.67;15.82;;;;;;;-0.71;100.00;101173.34;5023470;28;20201;-74
2023/01/21 03:17:53;;;;;;;27.63;15.80;;;;;;;-0.95;100.00;101180.09;5074303;28;20632;-74
2023/01/21 03:20:25;;;;;;;28.48;14.70;;;;;;;-1.05;100.00;101192.25;5067861;28;20227;-74
2023/01/21 03:22:58;;;;;;;25.20;15.10;;;;;;;-1.06;100.00;101184.34;5066389;28;20224;-74
2023/01/21 03:25:28;;;;;;;25.80;15.65;;;;;;;-1.02;100.00;101185.25;5076103;28;20228;-75
2023/01/21 03:27:56;;;;;;;30.08;16.23;;;;;;;-0.97;100.00;101186.19;5078072;28;20200;-75
2023/01/21 03:30:25;;;;;;;26.67;15.55;;;;;;;-1.02;100.00;101194.06;5084564;28;20266;-73
2023/01/21 03:32:54;;;;;;;29.50;16.55;;;;;;;-1.01;100.00;101194.97;5076745;28;20199;-74
2023/01/21 03:35:25;;;;;;;28.92;16.10;;;;;;;-1.11;100.00;101194.84;5071468;28;20234;-76
2023/01/21 03:37:58;;;;;;;27.90;15.35;;;;;;;-1.15;100.00;101195.66;5070682;28;20196;-74
2023/01/21 03:40:28;;;;;;;28.80;16.70;;;;;;;-1.14;100.00;101200.06;5070471;28;20210;-75
2023/01/21 03:42:55;;;;;;;29.58;15.85;;;;;;;-1.19;100.00;101196.47;5066203;28;20195;-73
2023/01/21 03:45:32;;;;;;;29.92;16.63;;;;;;;-1.22;100.00;101206.09;5067370;28;20214;-75
2023/01/21 03:48:05;;;;;;;26.08;16.20;;;;;;;-1.22;100.00;101200.81;5073300;28;20679;-75
2023/01/21 03:50:38;;;;;;;25.83;14.95;;;;;;;-1.23;100.00;101204.34;5074157;28;20287;-74
2023/01/21 03:53:06;;;;;;;29.30;16.38;;;;;;;-1.31;100.00;101202.47;5074506;28;20196;-74
2023/01/21 03:55:34;;;;;;;27.38;15.45;;;;;;;-1.32;100.00;101199.78;5073480;28;20733;-73
2023/01/21 03:58:01;;;;;;;36.10;15.85;;;;;;;-1.26;100.00;101203.41;5073692;28;20200;-75
2023/01/21 04:00:28;;;;;;;29.70;15.48;;;;;;;-1.33;100.00;101203.31;5072514;28;20642;-75
2023/01/21 04:02:54;;;;;;;26.52;15.30;;;;;;;-1.40;100.00;101210.25;5072741;28;20198;-73
2023/01/21 04:05:21;;;;;;;32.45;17.95;;;;;;;-1.47;100.00;101209.25;5072062;28;20228;-75
2023/01/21 04:07:49;;;;;;;29.58;15.85;;;;;;;-1.40;100.00;101215.53;5063183;28;20233;-76
2023/01/21 04:10:16;;;;;;;31.05;18.00;;;;;;;-1.44;100.00;101220.75;5071425;28;20570;-74
2023/01/21 04:12:43;;;;;;;29.35;17.40;;;;;;;-1.38;100.00;101216.44;5073504;28;20302;-73
2023/01/21 04:15:10;;;;;;;29.33;16.52;;;;;;;-1.38;100.00;101218.16;5063641;28;20224;-76
2023/01/21 04:17:37;;;;;;;27.38;16.42;;;;;;;-1.41;100.00;101221.66;5063012;28;20723;-76
2023/01/21 04:20:04;;;;;;;28.10;14.77;;;;;;;-1.44;100.00;101218.97;5069541;28;20203;-74
2023/01/21 04:22:31;;;;;;;31.85;15.43;;;;;;;-1.43;100.00;101219.84;5063942;28;20204;-74
2023/01/21 04:24:59;;;;;;;30.23;15.65;;;;;;;-1.48;100.00;101215.38;5066885;28;20222;-75
2023/01/21 04:27:25;;;;;;;28.10;15.73;;;;;;;-1.53;100.00;101218.81;5075597;28;20208;-72
2023/01/21 04:29:52;;;;;;;30.63;16.45;;;;;;;-1.57;100.00;101222.28;5078255;28;20202;-74
2023/01/21 04:32:19;;;;;;;31.85;17.10;;;;;;;-1.60;100.00;101232.78;5076429;28;20200;-75
2023/01/21 04:34:45;;;;;;;27.48;16.25;;;;;;;-1.68;100.00;101215.03;5070749;28;20227;-74
2023/01/21 04:37:12;;;;;;;27.10;16.23;;;;;;;-1.62;100.00;101227.47;5073101;28;20212;-76
2023/01/21 04:39:40;;;;;;;31.98;15.95;;;;;;;-1.62;100.00;101221.31;5073896;28;20194;-75
2023/01/21 04:42:07;;;;;;;29.38;16.83;;;;;;;-1.63;100.00;101230.06;5073821;28;20204;-77
2023/01/21 04:44:34;;;;;;;27.92;16.98;;;;;;;-1.64;100.00;101223.91;5073809;28;20195;-75
2023/01/21 04:47:00;;;;;;;33.10;17.35;;;;;;;-1.60;100.00;101225.75;5077345;28;20209;-75
2023/01/21 04:49:27;;;;;;;26.70;16.23;;;;;;;-1.61;100.00;101233.63;5086983;28;20230;-74
2023/01/21 04:51:54;;;;;;;27.80;17.30;;;;;;;-1.69;100.00;101231.75;5088354;28;20194;-73
2023/01/21 04:54:20;;;;;;;29.92;16.38;;;;;;;-1.73;100.00;101231.69;5084303;28;20227;-73
2023/01/21 04:56:47;;;;;;;31.52;16.63;;;;;;;-1.76;100.00;101231.63;5081328;28;20441;-76
2023/01/21 04:59:15;;;;;;;27.48;16.60;;;;;;;-1.84;100.00;101230.59;5076739;28;20202;-75
2023/01/21 05:01:41;;;;;;;31.90;16.08;;;;;;;-1.82;100.00;101245.59;5078109;28;20205;-74
2023/01/21 05:04:08;;;;;;;34.63;16.85;;;;;;;-1.85;100.00;101240.28;5076070;28;20707;-74
2023/01/21 05:06:34;;;;;;;31.45;16.67;;;;;;;-1.87;100.00;101246.38;5076447;28;20265;-75
2023/01/21 05:09:01;;;;;;;29.55;17.13;;;;;;;-1.93;100.00;101248.03;5075184;28;20295;-74
2023/01/21 05:11:27;;;;;;;32.00;17.88;;;;;;;-1.90;100.00;101248.09;5097147;28;20267;-73
2023/01/21 05:13:54;;;;;;;33.58;17.33;;;;;;;-1.87;100.00;101270.16;5089701;28;20204;-75
2023/01/21 05:16:22;;;;;;;33.35;18.58;;;;;;;-1.87;100.00;101260.47;5079439;28;20258;-76
2023/01/21 05:18:49;;;;;;;30.98;17.08;;;;;;;-1.89;100.00;101255.16;5071704;28;20202;-75
2023/01/21 05:21:15;;;;;;;34.45;18.83;;;;;;;-1.90;100.00;101260.41;5076170;28;20297;-76
2023/01/21 05:23:42;;;;;;;32.80;17.27;;;;;;;-2.00;100.00;101269.91;5069442;28;20198;-75
2023/01/21 05:26:08;;;;;;;28.40;16.15;;;;;;;-2.02;100.00;101263.69;5073646;28;20241;-75
2023/01/21 05:28:35;;;;;;;33.67;17.58;;;;;;;-2.02;100.00;101266.34;5074058;28;20199;-75
2023/01/21 05:31:02;;;;;;;32.00;17.83;;;;;;;-2.06;100.00;101267.13;5073723;28;20292;-74
2023/01/21 05:33:32;;;;;;;34.47;18.35;;;;;;;-2.09;100.00;101269.72;5072569;28;20334;-74
2023/01/21 05:36:00;;;;;;;28.00;16.10;;;;;;;-2.15;100.00;101272.22;5069425;28;20491;-74
2023/01/21 05:38:27;;;;;;;36.75;20.85;;;;;;;-2.15;100.00;101272.22;5080866;28;20249;-75
2023/01/21 05:40:56;;;;;;;31.33;16.95;;;;;;;-2.13;100.00;101276.66;5079484;28;20202;-74
2023/01/21 05:43:23;;;;;;;38.78;19.30;;;;;;;-2.03;100.00;101276.88;5079244;28;20265;-73
2023/01/21 05:45:50;;;;;;;35.28;19.13;;;;;;;-2.02;100.00;101284.81;5078910;28;20224;-74
2023/01/21 05:48:16;;;;;;;34.47;18.63;;;;;;;-2.01;100.00;101285.69;5076223;28;20200;-75
2023/01/21 05:50:44;;;;;;;35.78;18.50;;;;;;;-1.99;100.00;101287.53;5075792;28;20202;-73
2023/01/21 05:53:11;;;;;;;39.88;18.48;;;;;;;-1.96;100.00;101284.94;5071959;28;20281;-74
2023/01/21 05:55:37;;;;;;;38.72;19.67;;;;;;;-1.93;100.00;101294.66;5082086;28;20238;-73
2023/01/21 05:58:04;;;;;;;35.58;17.90;;;;;;;-1.91;100.00;101295.59;5079684;28;20263;-75
2023/01/21 06:00:31;;;;;;;37.60;19.60;;;;;;;-1.85;100.00;101292.16;5075588;28;20564;-73
2023/01/21 06:03:01;;;;;;;39.70;19.63;;;;;;;-1.86;100.00;101293.03;5082765;28;20685;-76
2023/01/21 06:05:28;;;;;;;36.35;18.70;;;;;;;-1.86;100.00;101306.25;5080669;28;20231;-74
2023/01/21 06:07:56;;;;;;;38.10;21.05;;;;;;;-1.90;100.00;101290.34;5080576;28;20211;-75
2023/01/21 06:10:22;;;;;;;43.50;20.20;;;;;;;-1.85;100.00;101305.38;5077116;28;20231;-75
2023/01/21 06:12:51;;;;;;;35.08;18.98;;;;;;;-1.85;100.00;101305.38;5082066;28;20268;-73
2023/01/21 06:15:17;;;;;;;41.75;18.80;;;;;;;-1.86;100.00;101300.97;5078398;28;20227;-74
2023/01/21 06:17:44;;;;;;;32.53;19.00;;;;;;;-1.92;100.00;101301.75;5081469;28;20193;-77
2023/01/21 06:20:11;;;;;;;35.88;20.52;;;;;;;-1.96;100.00;101303.44;5078256;28;20203;-75
2023/01/21 06:22:38;;;;;;;36.00;20.08;;;;;;;-2.00;100.00;101321.81;5075049;28;20199;-76
2023/01/21 06:25:06;;;;;;;39.25;19.58;;;;;;;-2.00;100.00;101312.13;5068100;28;20231;-75
2023/01/21 06:27:36;;;;;;;41.90;22.33;;;;;;;-1.98;100.00;101320.97;5066228;28;20206;-75
2023/01/21 06:30:02;;;;;;;36.03;20.13;;;;;;;-2.01;100.00;101312.09;5081951;28;20200;-72
2023/01/21 06:32:29;;;;;;;35.00;19.15;;;;;;;-2.06;100.00;101321.69;5079115;28;20219;-73
2023/01/21 06:34:55;;;;;;;34.15;19.60;;;;;;;-2.03;100.00;101321.75;5080641;28;20526;-75
2023/01/21 06:37:22;;;;;;;37.30;18.23;;;;;;;-2.08;100.00;101326.03;5083163;28;20220;-75
2023/01/21 06:39:48;;;;;;;35.17;20.42;;;;;;;-2.11;100.00;101327.75;5075323;28;20214;-74
2023/01/21 06:42:17;;;;;;;40.83;19.10;;;;;;;-2.08;100.00;101332.22;5071358;28;20227;-75
2023/01/21 06:44:44;;;;;;;40.67;22.17;;;;;;;-2.05;100.00;101334.91;5079676;28;20220;-73
2023/01/21 06:47:10;;;;;;;41.17;19.80;;;;;;;-2.05;100.00;101328.75;5078579;28;20200;-74
2023/01/21 06:49:37;;;;;;;36.28;18.38;;;;;;;-1.99;100.00;101328.84;5074545;28;20354;-74
2023/01/21 06:52:03;;;;;;;36.05;19.58;;;;;;;-1.98;100.00;101328.03;5061594;28;20206;-74
2023/01/21 06:54:30;;;;;;;40.70;20.70;;;;;;;-2.04;100.00;101333.16;5070373;28;20207;-76
2023/01/21 06:56:57;;;;;;;38.85;19.83;;;;;;;-2.06;100.00;101345.44;5069290;28;20223;-76
2023/01/21 06:59:25;;;;;;;34.78;20.00;;;;;;;-1.97;100.00;101345.63;5070894;28;20210;-76
2023/01/21 07:01:52;;;;;;;34.22;19.27;;;;;;;-1.98;100.00;101351.78;5067433;28;20266;-75
2023/01/21 07:04:19;;;;;;;34.53;17.80;;;;;;;-2.01;100.00;101352.63;5071326;28;20207;-76
2023/01/21 07:06:45;;;;;;;36.17;19.48;;;;;;;-1.97;100.00;101362.38;5071592;28;20196;-74
2023/01/21 07:09:12;;;;;;;28.92;18.35;;;;;;;-1.96;100.00;101355.34;5074694;28;20212;-76
2023/01/21 07:11:38;;;;;;;33.92;17.77;;;;;;;-1.94;100.00;101356.28;5077976;28;20204;-76
2023/01/21 07:14:05;;;;;;;30.80;18.00;;;;;;;-1.92;100.00;101366.00;5077215;28;20209;-75
2023/01/21 07:16:33;;;;;;;34.92;18.67;;;;;;;-1.85;100.00;101363.47;5082580;28;20707;-77
2023/01/21 07:18:59;;;;;;;35.72;18.00;;;;;;;-1.83;100.00;101367.03;5077990;28;20270;-74
2023/01/21 07:21:26;;;;;;;34.55;18.15;;;;;;;-1.82;100.00;101372.34;5078292;28;20207;-74
2023/01/21 07:23:53;;;;;;;41.00;19.38;;;;;;;-1.82;100.00;101374.13;5078187;28;20194;-75
2023/01/21 07:26:20;;;;;;;36.38;19.90;;;;;;;-1.81;100.00;101370.59;5078310;28;20223;-77
2023/01/21 07:28:46;;;;;;;32.47;18.20;;;;;;;-1.81;100.00;101367.97;5073950;28;20203;-76
2023/01/21 07:31:13;;;;;;;37.33;18.17;;;;;;;-1.73;100.00;101374.31;5073059;28;20200;-76
2023/01/21 07:33:41;;;;;;;44.35;22.58;;;;;;;-1.68;100.00;101380.56;5068211;28;20242;-75
2023/01/21 07:36:08;;;;;;;34.10;19.25;;;;;;;-1.70;100.00;101379.63;5073864;28;20232;-74
2023/01/21 07:38:35;;;;;;;33.83;18.85;;;;;;;-1.60;100.00;101388.66;5069450;28;20205;-75
2023/01/21 07:41:01;;;;;;;33.40;17.58;;;;;;;-1.61;100.00;101382.47;5084284;28;20284;-74
2023/01/21 07:43:28;;;;;;;30.42;18.77;;;;;;;-1.55;100.00;101387.88;5097342;28;20270;-73
2023/01/21 07:45:55;;;;;;;34.78;18.90;;;;;;;-1.47;100.00;101388.00;5094614;28;20226;-72
2023/01/21 07:48:22;;;;;;;33.30;17.00;;;;;;;-1.39;100.00;101388.19;5093047;28;20218;-74
2023/01/21 07:50:50;;;;;;;33.13;18.50;;;;;;;-1.31;100.00;101392.75;5090391;28;20186;-73
2023/01/21 07:53:16;;;;;;;31.80;17.15;;;;;;;-1.17;100.00;101386.84;5097510;28;20251;-73
2023/01/21 07:55:43;;;;;;;30.30;17.60;;;;;;;-1.07;100.00;101392.28;5093371;28;20238;-74
2023/01/21 07:58:11;;;;;;;31.15;17.98;;;;;;;-0.97;100.00;101388.09;5084350;28;20214;-72
2023/01/21 08:00:37;;;;;;;36.75;18.20;;;;;;;-0.92;100.00;101385.53;5084599;28;20218;-72
2023/01/21 08:03:04;;;;;;;32.67;18.38;;;;;;;-0.80;100.00;101387.47;5083822;28;20192;-74
2023/01/21 08:05:30;;;;;;;35.90;17.95;;;;;;;-0.81;100.00;101383.03;5072503;28;20246;-72
2023/01/21 08:07:58;;;;;;;32.38;18.20;;;;;;;-0.74;100.00;101385.81;5074602;28;20246;-72
2023/01/21 08:10:25;;;;;;;29.80;17.35;;;;;;;-0.66;100.00;101384.22;5074775;28;20210;-74
2023/01/21 08:12:52;;;;;;;33.17;15.80;;;;;;;-0.63;100.00;101393.94;5075285;28;20226;-76
2023/01/21 08:15:18;;;;;;;30.17;16.75;;;;;;;-0.65;100.00;101393.03;5076009;28;20729;-74
2023/01/21 08:17:46;;;;;;;29.63;17.48;;;;;;;-0.61;100.00;101393.94;5077838;28;20203;-75
2023/01/21 08:20:13;;;;;;;26.80;16.58;;;;;;;-0.67;100.00;101400.94;5080069;28;20215;-76
2023/01/21 08:22:39;;;;;;;24.33;14.15;;;;;;;-0.67;100.00;101408.88;5080526;28;20210;-76
2023/01/21 08:25:09;;;;;;;24.33;14.48;;;;;;;-0.68;100.00;101399.16;5078415;28;20644;-77
2023/01/21 08:27:36;;;;;;;26.45;14.82;;;;;;;-0.56;100.00;101395.81;5078779;28;20199;-77
2023/01/21 08:30:02;;;;;;;25.35;13.38;;;;;;;-0.52;100.00;101394.09;5080753;28;20203;-76
2023/01/21 08:32:30;;;;;;;26.10;14.10;;;;;;;-0.43;100.00;101394.22;5075234;28;20936;-77
2023/01/21 08:34:57;;;;;;;20.58;13.45;;;;;;;-0.32;100.00;101394.41;5075167;28;20216;-77
2023/01/21 08:37:23;;;;;;;22.38;13.23;;;;;;;-0.27;100.00;101398.91;5077250;28;20228;-74
2023/01/21 08:39:50;;;;;;;22.20;13.07;;;;;;;-0.08;100.00;101409.78;5079059;28;20194;-76
2023/01/21 08:42:18;;;;;;;25.77;12.70;;;;;;;0.13;100.00;101404.75;5071111;28;20658;-79
2023/01/21 08:44:45;;;;;;;21.55;12.20;;;;;;;0.28;100.00;101403.19;5074448;28;20229;-76
2023/01/21 08:47:11;;;;;;;20.30;11.85;;;;;;;0.37;100.00;101413.91;5078365;28;20195;-74
2023/01/21 08:49:38;;;;;;;128.65;71.75;;;;;;;0.61;100.00;101408.00;5080689;28;20199;-75
2023/01/21 08:52:05;;;;;;;64.00;37.13;;;;;;;0.94;100.00;101422.50;5080591;28;20251;-78
2023/01/21 08:54:31;;;;;;;24.17;15.70;;;;;;;1.20;100.00;101417.47;5071395;28;20200;-76
2023/01/21 08:56:58;;;;;;;17.58;12.23;;;;;;;1.25;100.00;101421.94;5074197;28;20283;-73
2023/01/21 08:59:28;;;;;;;19.65;12.20;;;;;;;1.37;100.00;101431.75;5073662;28;20569;-76
2023/01/21 09:01:56;;;;;;;18.42;11.85;;;;;;;1.23;100.00;101423.69;5076587;28;20345;-75
2023/01/21 09:04:23;;;;;;;24.40;12.73;;;;;;;1.36;100.00;101424.69;5064330;28;20207;-76
2023/01/21 09:06:50;;;;;;;17.48;10.45;;;;;;;1.54;100.00;101423.97;5070690;28;20576;-75
2023/01/21 09:09:16;;;;;;;17.25;11.00;;;;;;;1.85;100.00;101432.13;5070899;28;20664;-76
2023/01/21 09:11:43;;;;;;;17.42;11.75;;;;;;;2.36;100.00;101430.69;5075805;28;20280;-76
2023/01/21 09:14:10;;;;;;;15.40;10.63;;;;;;;2.95;100.00;101434.44;5072724;28;20573;-76
2023/01/21 09:16:38;;;;;;;17.08;9.90;;;;;;;2.86;100.00;101437.06;5076104;28;20226;-75
2023/01/21 09:19:04;;;;;;;14.70;9.88;;;;;;;3.40;100.00;101431.84;5072064;28;20202;-75
2023/01/21 09:21:33;;;;;;;18.05;10.63;;;;;;;3.50;100.00;101442.47;5073500;28;20294;-77
2023/01/21 09:24:00;;;;;;;14.75;10.27;;;;;;;3.32;100.00;101434.47;5077998;28;20198;-70
2023/01/21 09:26:27;;;;;;;91.57;55.67;;;;;;;3.79;100.00;101449.59;5076598;28;20705;-73
2023/01/21 09:28:55;;;;;;;26.58;14.68;;;;;;;3.24;100.00;101455.78;5070410;28;20210;-76
2023/01/21 09:31:24;;;;;;;16.40;11.40;;;;;;;3.03;100.00;101450.41;5073659;28;20217;-76
2023/01/21 09:33:54;;;;;;;14.32;9.95;;;;;;;3.05;100.00;101449.56;5081337;28;20204;-76
2023/01/21 09:36:23;;;;;;;15.77;11.05;;;;;;;3.28;100.00;101456.69;5076613;28;20744;-77
2023/01/21 09:38:51;;;;;;;14.95;10.13;;;;;;;3.50;100.00;101461.13;5077680;28;20286;-77
2023/01/21 09:41:29;;;;;;;16.83;11.38;;;;;;;3.24;100.00;101463.78;5078403;28;20209;-75
2023/01/21 09:44:11;;;;;;;17.05;10.55;;;;;;;2.72;100.00;101466.28;5073842;28;20205;-76
2023/01/21 09:46:43;;;;;;;15.25;9.77;;;;;;;2.78;100.00;101473.41;5074455;28;20244;-78
2023/01/21 09:49:17;;;;;;;13.52;9.70;;;;;;;2.53;100.00;101470.63;5077006;28;20248;-76
2023/01/21 09:51:52;;;;;;;17.00;10.10;;;;;;;2.81;100.00;101466.31;5077955;28;20204;-74
2023/01/21 09:54:25;;;;;;;14.05;9.82;;;;;;;2.78;100.00;101465.41;5079064;28;20240;-77
2023/01/21 09:57:03;;;;;;;19.05;11.80;;;;;;;2.67;100.00;101468.94;5082147;28;20214;-76
2023/01/21 09:59:43;;;;;;;16.92;11.05;;;;;;;2.17;100.00;101474.88;5075719;28;20297;-73
2023/01/21 10:02:20;;;;;;;16.13;10.77;;;;;;;1.63;100.00;101473.59;5074342;28;20229;-73
2023/01/21 10:04:55;;;;;;;17.40;10.65;;;;;;;1.57;100.00;101481.50;5076734;28;20744;-75
2023/01/21 10:07:27;;;;;;;18.58;11.18;;;;;;;1.34;100.00;101476.88;5081166;28;20281;-73
2023/01/21 10:10:09;;;;;;;21.27;11.82;;;;;;;1.34;100.00;101470.69;5069151;28;20332;-73
2023/01/21 10:12:55;;;;;;;19.00;11.20;;;;;;;1.77;100.00;101473.72;5066951;28;20210;-73
2023/01/21 10:15:37;;;;;;;19.42;10.98;;;;;;;2.38;100.00;101479.44;5074297;28;20230;-76
2023/01/21 10:18:09;;;;;;;19.23;12.25;;;;;;;2.48;100.00;101475.03;5053802;28;20199;-75
2023/01/21 10:20:45;;;;;;;16.35;10.95;;;;;;;2.70;100.00;101473.38;5077366;28;20187;-76
2023/01/21 10:23:20;;;;;;;19.52;11.70;;;;;;;3.38;100.00;101465.56;5079253;28;20224;-73
2023/01/21 10:25:48;;;;;;;15.50;11.32;;;;;;;3.34;100.00;101465.56;5073531;28;20221;-74
2023/01/21 10:28:22;;;;;;;18.15;12.38;;;;;;;3.14;100.00;101464.63;5071502;28;20198;-77
2023/01/21 10:30:51;;;;;;;17.08;12.02;;;;;;;2.75;100.00;101468.94;5073229;28;20676;-78
2023/01/21 10:33:20;;;;;;;17.77;11.88;;;;;;;2.32;100.00;101475.84;5092620;28;20695;-77
2023/01/21 10:36:12;;;;;;;86.07;52.03;;;;;;;2.48;100.00;101465.28;5080315;28;20225;-76
2023/01/21 10:38:48;;;;;;;27.27;18.17;;;;;;;2.60;100.00;101472.47;5076127;28;20559;-77
2023/01/21 10:41:28;;;;;;;20.17;13.00;;;;;;;2.46;100.00;101468.81;5073837;28;20226;-75
2023/01/21 10:44:04;;;;;;;19.25;12.68;;;;;;;2.30;100.00;101462.53;5077411;28;20204;-77
2023/01/21 10:46:40;;;;;;;20.98;13.25;;;;;;;2.16;100.00;101470.44;5078340;28;20225;-75
2023/01/21 10:49:21;;;;;;;21.70;12.52;;;;;;;1.96;100.00;101459.66;5076626;28;20199;-74
2023/01/21 10:51:56;;;;;;;19.77;12.68;;;;;;;1.98;100.00;101471.19;5081286;28;20207;-74
2023/01/21 10:54:34;;;;;;;21.25;12.80;;;;;;;1.97;100.00;101473.88;5085384;28;20714;-74
2023/01/21 10:57:10;;;;;;;20.10;12.43;;;;;;;1.89;100.00;101465.81;5062990;28;20220;-74
2023/01/21 10:59:39;;;;;;;21.20;12.23;;;;;;;2.06;100.00;101474.81;5082673;28;20201;-74
2023/01/21 11:02:25;;;;;;;23.60;13.52;;;;;;;1.96;100.00;101474.72;5081762;28;20195;-76
2023/01/21 11:04:52;;;;;;;18.77;12.38;;;;;;;1.91;100.00;101479.13;5085839;28;20771;-76
2023/01/21 11:07:22;;;;;;;23.70;13.52;;;;;;;1.77;100.00;101466.63;5084059;28;20205;-75
2023/01/21 11:09:49;;;;;;;24.65;13.38;;;;;;;1.73;100.00;101471.91;5085350;28;20289;-77
2023/01/21 11:12:19;;;;;;;21.30;12.48;;;;;;;1.95;100.00;101480.94;5087913;28;20211;-75
2023/01/21 11:14:50;;;;;;;25.35;13.13;;;;;;;1.66;100.00;101485.13;5084142;28;20320;-75
2023/01/21 11:17:31;;;;;;;19.77;12.55;;;;;;;1.55;100.00;101481.47;5085174;28;20211;-75
2023/01/21 11:19:59;;;;;;;164.05;94.75;;;;;;;1.61;100.00;101483.31;5084056;28;20214;-68
2023/01/21 11:22:30;;;;;;;48.47;26.65;;;;;;;2.02;100.00;101483.63;5066104;28;20208;-73